Time;durP1;ratioP1;P1;durP2;ratioP2;P2;SDS_P1;SDS_P2;PMS_P1;PMS_P2;Temp;Humidity;BMP_temperature;BMP_pressure;BME280_temperature;BME280_humidity;BME280_pressure;Samples;Min_cycle;Max_cycle;Signal;HPM_P1;HPM_P2
2021/03/20 00:00:40;;;;;;;9.60;6.18;;;5.40;88.70;;;;;;5054081;28;20029;-75
2021/03/20 00:03:06;;;;;;;8.73;5.78;;;5.40;88.70;;;;;;5054499;28;20025;-72
2021/03/20 00:05:32;;;;;;;10.13;5.25;;;5.40;89.30;;;;;;5054392;28;20025;-70
2021/03/20 00:07:59;;;;;;;9.05;5.90;;;5.40;89.10;;;;;;5054277;28;20417;-73
2021/03/20 00:10:26;;;;;;;10.48;5.80;;;5.40;89.30;;;;;;5053606;28;20143;-79
2021/03/20 00:12:52;;;;;;;12.38;6.15;;;5.40;89.40;;;;;;5053439;28;20105;-72
2021/03/20 00:15:21;;;;;;;9.93;5.70;;;5.50;89.20;;;;;;5054151;28;20082;-77
2021/03/20 00:17:48;;;;;;;9.35;5.97;;;5.50;89.40;;;;;;5054130;28;20050;-77
2021/03/20 00:20:24;;;;;;;8.15;5.65;;;5.50;88.80;;;;;;5054159;28;20020;-76
2021/03/20 00:22:51;;;;;;;9.93;5.93;;;5.50;88.50;;;;;;5054016;28;20432;-75
2021/03/20 00:25:17;;;;;;;9.57;6.10;;;5.40;88.30;;;;;;5054012;28;20021;-72
2021/03/20 00:27:43;;;;;;;11.45;5.95;;;5.30;88.40;;;;;;5053832;28;20486;-73
2021/03/20 00:30:10;;;;;;;8.20;5.60;;;5.30;88.80;;;;;;5052844;28;20037;-72
2021/03/20 00:32:35;;;;;;;8.63;5.95;;;5.30;89.40;;;;;;5053609;28;20025;-74
2021/03/20 00:35:03;;;;;;;10.00;5.72;;;5.30;89.70;;;;;;5053935;28;20576;-78
2021/03/20 00:37:29;;;;;;;9.23;6.05;;;5.30;89.60;;;;;;5053585;28;20107;-72
2021/03/20 00:39:55;;;;;;;9.50;5.68;;;5.40;89.00;;;;;;5052222;28;20059;-77
2021/03/20 00:42:20;;;;;;;8.65;5.20;;;5.40;88.40;;;;;;5053516;28;20028;-77
2021/03/20 00:44:46;;;;;;;7.28;5.30;;;5.30;87.60;;;;;;5053465;28;20044;-79
2021/03/20 00:47:12;;;;;;;8.07;5.65;;;5.40;87.40;;;;;;5053123;28;20025;-72
2021/03/20 00:49:37;;;;;;;7.60;5.32;;;5.40;87.70;;;;;;5052673;28;20501;-78
2021/03/20 00:52:03;;;;;;;8.00;5.68;;;5.40;88.00;;;;;;5052587;28;20100;-78
2021/03/20 00:54:29;;;;;;;10.13;5.20;;;5.30;88.10;;;;;;5053111;28;20419;-71
2021/03/20 00:56:55;;;;;;;11.10;5.35;;;5.30;88.70;;;;;;5051488;28;20031;-73
2021/03/20 00:59:20;;;;;;;10.55;5.28;;;5.30;88.40;;;;;;5052922;28;20420;-77
2021/03/20 01:01:46;;;;;;;10.45;5.22;;;5.30;87.60;;;;;;5052799;28;20088;-72
2021/03/20 01:04:12;;;;;;;8.23;4.65;;;5.30;87.40;;;;;;5052774;28;20378;-78
2021/03/20 01:06:38;;;;;;;10.82;5.75;;;5.30;87.50;;;;;;5053372;28;20025;-71
2021/03/20 01:09:05;;;;;;;8.82;6.20;;;5.30;87.30;;;;;;5053026;28;20084;-78
2021/03/20 01:11:31;;;;;;;10.68;6.18;;;5.30;87.30;;;;;;5050525;28;20488;-72
2021/03/20 01:13:58;;;;;;;8.30;5.50;;;5.20;87.10;;;;;;5052784;28;20029;-77
2021/03/20 01:16:24;;;;;;;8.45;5.57;;;5.30;87.20;;;;;;5052924;28;20478;-78
2021/03/20 01:18:50;;;;;;;9.57;5.65;;;5.30;87.30;;;;;;5052511;28;20017;-73
2021/03/20 01:21:16;;;;;;;9.70;5.95;;;5.40;87.80;;;;;;5052812;28;20481;-77
2021/03/20 01:23:45;;;;;;;11.15;5.65;;;5.40;87.60;;;;;;5052815;28;20029;-71
2021/03/20 01:26:11;;;;;;;12.52;5.85;;;5.30;87.40;;;;;;5052669;28;20057;-71
2021/03/20 01:28:39;;;;;;;8.80;6.45;;;5.30;87.60;;;;;;5049879;28;20048;-71
2021/03/20 01:31:06;;;;;;;9.57;5.80;;;5.30;87.50;;;;;;5051743;28;20116;-72
2021/03/20 01:33:31;;;;;;;8.90;5.60;;;5.30;87.50;;;;;;5051731;28;20017;-71
2021/03/20 01:35:59;;;;;;;7.55;5.50;;;5.30;87.70;;;;;;5051762;28;20021;-71
2021/03/20 01:38:26;;;;;;;10.70;5.22;;;5.30;87.60;;;;;;5051820;28;20028;-71
2021/03/20 01:40:56;;;;;;;9.52;5.20;;;5.30;87.70;;;;;;5050469;28;20028;-71
2021/03/20 01:43:25;;;;;;;8.30;5.03;;;5.30;87.50;;;;;;5052388;28;20036;-76
2021/03/20 01:45:52;;;;;;;8.20;5.38;;;5.30;87.30;;;;;;5052087;28;20100;-71
2021/03/20 01:48:23;;;;;;;9.50;4.82;;;5.30;87.30;;;;;;5052088;28;20041;-71
2021/03/20 01:51:01;;;;;;;9.33;5.53;;;5.30;87.30;;;;;;5052121;28;20381;-71
2021/03/20 01:53:31;;;;;;;7.40;5.38;;;5.20;87.50;;;;;;5050680;28;20013;-70
2021/03/20 01:55:58;;;;;;;8.82;5.57;;;5.20;87.80;;;;;;5051652;28;20096;-71
2021/03/20 01:58:24;;;;;;;7.93;5.22;;;5.20;87.70;;;;;;5051603;28;20017;-71
2021/03/20 02:00:57;;;;;;;10.23;5.57;;;5.30;87.80;;;;;;5050900;28;20045;-70
2021/03/20 02:03:22;;;;;;;8.43;5.47;;;5.20;87.60;;;;;;5052056;28;20428;-72
2021/03/20 02:05:48;;;;;;;9.15;5.03;;;5.30;87.70;;;;;;5051283;28;20032;-71
2021/03/20 02:08:18;;;;;;;8.07;5.25;;;5.30;87.50;;;;;;5051141;28;20079;-71
2021/03/20 02:10:46;;;;;;;12.45;4.78;;;5.20;87.10;;;;;;5051153;28;20477;-71
2021/03/20 02:13:22;;;;;;;11.15;5.82;;;5.20;87.30;;;;;;5051195;28;20469;-71
2021/03/20 02:16:04;;;;;;;7.03;5.20;;;5.20;87.60;;;;;;5051279;28;20029;-71
2021/03/20 02:18:44;;;;;;;7.15;5.03;;;5.20;88.20;;;;;;5051190;28;20013;-71
2021/03/20 02:21:44;;;;;;;8.27;5.22;;;5.20;88.50;;;;;;5051208;28;20421;-71
2021/03/20 02:24:58;;;;;;;8.70;5.45;;;5.20;88.10;;;;;;5046266;28;20025;-71
2021/03/20 02:27:59;;;;;;;9.60;5.75;;;5.20;88.10;;;;;;5050976;28;20478;-72
2021/03/20 02:30:49;;;;;;;11.43;5.40;;;5.20;87.90;;;;;;5050173;28;20049;-78
2021/03/20 02:33:27;;;;;;;8.13;5.28;;;5.20;87.70;;;;;;5055214;28;20033;-77
2021/03/20 02:36:37;;;;;;;12.25;5.35;;;5.20;87.70;;;;;;5055017;28;20048;-75
2021/03/20 02:39:14;;;;;;;8.98;5.22;;;5.20;87.80;;;;;;5053977;28;20171;-78
2021/03/20 02:42:05;;;;;;;7.68;4.80;;;5.20;88.20;;;;;;5055150;28;20051;-77
2021/03/20 02:44:52;;;;;;;7.65;5.18;;;5.30;88.30;;;;;;5048486;28;20033;-76
2021/03/20 02:47:26;;;;;;;8.13;5.13;;;5.20;88.10;;;;;;5043068;28;20025;-79
2021/03/20 02:50:04;;;;;;;8.80;5.45;;;5.20;88.40;;;;;;5054807;28;20128;-70
2021/03/20 02:53:11;;;;;;;7.00;5.07;;;5.10;88.60;;;;;;5055022;28;20112;-72
2021/03/20 02:55:44;;;;;;;10.85;6.28;;;5.10;88.10;;;;;;5058970;28;20033;-76
2021/03/20 02:58:10;;;;;;;8.68;5.28;;;5.10;88.20;;;;;;5054862;28;20131;-72
2021/03/20 03:00:41;;;;;;;9.77;5.45;;;5.10;88.40;;;;;;5053167;28;20078;-72
2021/03/20 03:03:09;;;;;;;7.47;5.38;;;5.10;88.30;;;;;;5054666;28;20112;-72
2021/03/20 03:05:42;;;;;;;9.95;5.88;;;5.10;88.70;;;;;;5054756;28;20025;-75
2021/03/20 03:08:19;;;;;;;9.73;5.55;;;5.20;88.90;;;;;;5054537;28;20020;-73
2021/03/20 03:10:50;;;;;;;9.98;5.50;;;5.30;88.70;;;;;;5054467;28;20028;-72
2021/03/20 03:13:29;;;;;;;8.57;5.53;;;5.30;88.60;;;;;;5054514;28;20029;-74
2021/03/20 03:15:58;;;;;;;9.30;6.10;;;5.50;88.50;;;;;;5054253;28;20488;-72
2021/03/20 03:18:37;;;;;;;8.00;5.65;;;5.60;88.10;;;;;;5054469;28;20461;-71
2021/03/20 03:21:06;;;;;;;10.70;6.60;;;5.70;87.90;;;;;;5054212;28;20078;-72
2021/03/20 03:23:39;;;;;;;7.70;5.82;;;5.70;87.50;;;;;;5054570;28;20044;-79
2021/03/20 03:26:15;;;;;;;10.25;6.80;;;5.80;87.50;;;;;;5054035;28;20363;-72
2021/03/20 03:28:57;;;;;;;7.47;5.95;;;5.90;86.90;;;;;;5054300;28;20151;-71
2021/03/20 03:31:32;;;;;;;10.38;6.10;;;5.90;86.80;;;;;;5054123;28;20470;-71
2021/03/20 03:34:03;;;;;;;13.85;6.88;;;5.90;86.70;;;;;;5054449;28;20037;-72
2021/03/20 03:36:43;;;;;;;9.68;6.47;;;6.00;86.50;;;;;;5053980;28;20377;-72
2021/03/20 03:39:12;;;;;;;8.43;5.57;;;6.00;86.60;;;;;;5054321;28;20484;-70
2021/03/20 03:41:39;;;;;;;11.52;6.38;;;6.00;86.90;;;;;;5053608;28;20122;-72
2021/03/20 03:44:07;;;;;;;8.77;6.35;;;6.00;87.00;;;;;;5054173;28;20025;-72
2021/03/20 03:46:37;;;;;;;13.07;6.28;;;5.90;87.20;;;;;;5054041;28;20024;-71
2021/03/20 03:49:07;;;;;;;8.70;5.97;;;6.00;87.10;;;;;;5053675;28;20045;-71
2021/03/20 03:51:33;;;;;;;9.70;6.13;;;5.90;87.00;;;;;;5053895;28;20045;-71
2021/03/20 03:54:00;;;;;;;10.68;6.82;;;5.90;86.60;;;;;;5053700;28;20056;-73
2021/03/20 03:57:01;;;;;;;12.32;6.25;;;5.90;86.20;;;;;;5039965;28;20112;-73
2021/03/20 03:59:50;;;;;;;13.70;6.87;;;5.90;85.80;;;;;;5053629;28;20159;-74
2021/03/20 04:02:51;;;;;;;8.68;6.15;;;5.90;85.60;;;;;;5054409;28;20321;-71
2021/03/20 04:05:34;;;;;;;7.95;5.63;;;5.90;85.60;;;;;;5054133;28;20027;-72
2021/03/20 04:08:04;;;;;;;9.55;6.32;;;5.90;85.50;;;;;;5054082;28;20083;-71
2021/03/20 04:10:53;;;;;;;13.38;6.80;;;5.80;85.40;;;;;;5053748;28;20080;-71
2021/03/20 04:13:44;;;;;;;8.65;6.00;;;5.80;85.40;;;;;;5053984;28;20021;-72
2021/03/20 04:16:15;;;;;;;9.60;6.53;;;5.80;85.40;;;;;;5054102;28;20021;-71
2021/03/20 04:19:16;;;;;;;8.60;5.95;;;5.80;85.40;;;;;;5052315;28;20813;-72
2021/03/20 04:21:57;;;;;;;7.18;5.78;;;5.80;85.30;;;;;;5053119;28;20393;-71
2021/03/20 04:24:31;;;;;;;11.27;6.20;;;5.80;85.50;;;;;;5052721;28;20051;-71
2021/03/20 04:27:18;;;;;;;9.88;5.72;;;5.80;85.40;;;;;;5052935;28;20295;-71
2021/03/20 04:29:50;;;;;;;7.78;5.40;;;5.80;85.40;;;;;;5052800;28;20040;-72
2021/03/20 04:32:42;;;;;;;10.32;5.63;;;5.80;85.50;;;;;;5053488;28;20009;-72
2021/03/20 04:35:33;;;;;;;7.88;5.63;;;5.80;85.70;;;;;;5053509;28;20037;-72
2021/03/20 04:38:01;;;;;;;7.13;5.65;;;5.80;86.00;;;;;;5053345;28;20033;-73
2021/03/20 04:40:41;;;;;;;9.95;5.75;;;5.80;85.90;;;;;;5053392;28;20029;-72
2021/03/20 04:43:10;;;;;;;9.82;6.32;;;5.80;85.50;;;;;;5052912;28;20028;-73
2021/03/20 04:45:58;;;;;;;10.52;6.32;;;5.80;85.40;;;;;;5053187;28;20086;-71
2021/03/20 04:48:45;;;;;;;9.60;5.80;;;5.80;85.10;;;;;;5053095;28;20128;-71
2021/03/20 04:51:25;;;;;;;11.02;5.70;;;5.80;85.10;;;;;;5051661;28;20086;-72
2021/03/20 04:53:53;;;;;;;11.27;6.47;;;5.80;84.40;;;;;;5050344;28;20151;-72
2021/03/20 04:56:22;;;;;;;8.27;5.43;;;5.80;85.10;;;;;;5046555;28;20061;-77
2021/03/20 04:58:52;;;;;;;8.60;5.75;;;5.80;85.20;;;;;;5041210;28;20025;-72
2021/03/20 05:01:34;;;;;;;7.70;5.45;;;5.70;85.50;;;;;;5039491;28;20104;-72
2021/03/20 05:04:02;;;;;;;;;;;5.70;85.90;;;;;;5054545;28;20380;-72
2021/03/20 05:06:29;;;;;;;9.32;5.72;;;5.60;85.50;;;;;;5053330;28;19909;-73
2021/03/20 05:09:00;;;;;;;10.00;6.45;;;5.60;85.70;;;;;;5046400;28;20068;-73
2021/03/20 05:11:46;;;;;;;9.00;6.03;;;5.60;86.00;;;;;;5045870;28;20033;-72
2021/03/20 05:14:23;;;;;;;7.43;5.63;;;5.50;86.60;;;;;;5052475;28;20041;-75
2021/03/20 05:16:54;;;;;;;11.90;6.50;;;5.50;87.10;;;;;;5050968;28;20025;-74
2021/03/20 05:19:22;;;;;;;12.57;7.07;;;5.50;87.30;;;;;;5052027;28;20474;-72
2021/03/20 05:21:52;;;;;;;12.90;6.70;;;5.50;87.30;;;;;;5052568;28;20033;-71
2021/03/20 05:24:30;;;;;;;9.23;6.10;;;5.40;87.40;;;;;;5051286;28;20424;-79
2021/03/20 05:26:57;;;;;;;13.55;6.88;;;5.40;87.20;;;;;;5038513;28;20021;-73
2021/03/20 05:29:25;;;;;;;12.35;7.20;;;5.50;87.10;;;;;;5051362;28;20488;-72
2021/03/20 05:31:51;;;;;;;11.23;6.55;;;5.50;87.30;;;;;;5052006;28;20029;-72
2021/03/20 05:34:29;;;;;;;12.90;6.38;;;5.70;87.10;;;;;;5051959;28;20029;-71
2021/03/20 05:36:55;;;;;;;11.73;7.03;;;5.90;86.90;;;;;;5052644;28;20440;-73
2021/03/20 05:39:22;;;;;;;9.23;6.80;;;6.00;86.50;;;;;;5051773;28;20029;-71
2021/03/20 05:41:59;;;;;;;10.35;7.28;;;6.20;86.60;;;;;;5051531;28;20064;-72
2021/03/20 05:44:49;;;;;;;10.38;6.63;;;6.20;86.20;;;;;;5050361;28;20017;-75
2021/03/20 05:47:33;;;;;;;10.98;6.88;;;6.40;85.90;;;;;;5052106;28;20031;-72
2021/03/20 05:50:05;;;;;;;10.75;6.53;;;6.50;85.30;;;;;;5046092;28;20045;-73
2021/03/20 05:52:39;;;;;;;13.50;7.38;;;6.60;85.40;;;;;;5051607;28;20029;-74
2021/03/20 05:55:05;;;;;;;12.77;7.30;;;6.80;85.10;;;;;;5051861;28;20103;-73
2021/03/20 05:57:40;;;;;;;11.65;7.70;;;6.90;85.00;;;;;;5052131;28;20044;-72
2021/03/20 06:00:43;;;;;;;12.52;7.30;;;7.00;85.10;;;;;;5032188;28;20443;-73
2021/03/20 06:03:26;;;;;;;13.75;6.97;;;7.20;84.40;;;;;;5048790;28;20024;-78
2021/03/20 06:06:00;;;;;;;13.48;7.25;;;7.40;84.10;;;;;;5042157;28;20022;-76
2021/03/20 06:08:50;;;;;;;13.57;6.93;;;7.50;83.80;;;;;;5053699;28;20028;-73
2021/03/20 06:11:41;;;;;;;11.13;7.57;;;7.70;83.30;;;;;;5055369;28;20057;-73
2021/03/20 06:14:29;;;;;;;20.17;8.45;;;7.70;83.60;;;;;;5057247;28;20079;-71
2021/03/20 06:17:18;;;;;;;11.75;7.68;;;7.70;83.60;;;;;;5055339;28;20021;-72
2021/03/20 06:20:14;;;;;;;15.55;8.85;;;7.80;83.60;;;;;;5055457;28;20040;-71
2021/03/20 06:23:09;;;;;;;14.10;7.60;;;7.90;83.80;;;;;;5054241;28;20048;-73
2021/03/20 06:25:55;;;;;;;11.45;7.63;;;8.00;83.30;;;;;;5052175;28;20033;-74
2021/03/20 06:28:46;;;;;;;12.43;8.35;;;8.10;83.30;;;;;;5055149;28;20124;-73
2021/03/20 06:31:25;;;;;;;13.90;8.50;;;8.30;83.00;;;;;;5054792;28;20041;-74
2021/03/20 06:34:00;;;;;;;10.55;7.38;;;8.30;83.40;;;;;;5054775;28;20039;-72
2021/03/20 06:36:43;;;;;;;14.57;8.02;;;8.30;82.90;;;;;;5055104;28;20056;-71
2021/03/20 06:39:58;;;;;;;12.77;8.23;;;8.60;82.80;;;;;;5055098;28;20055;-72
2021/03/20 06:42:29;;;;;;;13.75;8.32;;;8.70;82.30;;;;;;5053670;28;20060;-71
2021/03/20 06:45:05;;;;;;;11.65;7.72;;;9.00;82.60;;;;;;5055496;28;20021;-72
2021/03/20 06:47:33;;;;;;;12.25;8.15;;;9.20;81.20;;;;;;5052721;28;20572;-71
2021/03/20 06:50:31;;;;;;;12.20;7.75;;;9.20;80.60;;;;;;5054375;28;20132;-70
2021/03/20 06:53:02;;;;;;;12.18;7.93;;;9.30;80.60;;;;;;5055193;28;20036;-71
2021/03/20 06:55:38;;;;;;;17.35;8.55;;;9.40;80.70;;;;;;5054929;28;20023;-71
2021/03/20 06:58:26;;;;;;;15.18;8.13;;;9.40;80.90;;;;;;5054977;28;20065;-71
2021/03/20 07:00:52;;;;;;;13.75;8.27;;;9.60;80.80;;;;;;5052977;28;20029;-72
2021/03/20 07:03:55;;;;;;;11.88;7.65;;;9.70;80.80;;;;;;5053615;28;20078;-70
2021/03/20 07:06:46;;;;;;;15.80;9.38;;;9.70;80.60;;;;;;5055119;28;20029;-71
2021/03/20 07:09:12;;;;;;;16.33;9.20;;;9.80;81.10;;;;;;5047807;28;20040;-70
2021/03/20 07:11:43;;;;;;;13.30;8.48;;;9.90;80.60;;;;;;5054036;28;20369;-72
2021/03/20 07:14:52;;;;;;;16.52;8.25;;;10.00;80.30;;;;;;5054435;28;20024;-72
2021/03/20 07:17:27;;;;;;;15.00;8.48;;;10.10;80.30;;;;;;5046049;28;20473;-72
2021/03/20 07:20:11;;;;;;;12.45;8.60;;;10.20;80.50;;;;;;5052083;28;20382;-73
2021/03/20 07:22:40;;;;;;;12.90;8.13;;;10.40;80.50;;;;;;5047818;28;20032;-73
2021/03/20 07:25:33;;;;;;;14.57;7.80;;;10.60;79.50;;;;;;5054652;28;20017;-73
2021/03/20 07:28:13;;;;;;;16.67;8.77;;;10.70;79.20;;;;;;5053996;28;20751;-76
2021/03/20 07:30:59;;;;;;;12.80;8.43;;;10.60;79.90;;;;;;5053920;28;20051;-75
2021/03/20 07:33:29;;;;;;;12.45;8.45;;;10.80;80.00;;;;;;5043119;28;20485;-72
2021/03/20 07:36:15;;;;;;;14.20;9.32;;;10.70;80.10;;;;;;5054837;28;20053;-77
2021/03/20 07:38:41;;;;;;;14.57;9.20;;;10.70;80.30;;;;;;5054467;28;20021;-75
2021/03/20 07:41:10;;;;;;;14.07;9.00;;;10.70;80.60;;;;;;5054095;28;20036;-73
2021/03/20 07:43:36;;;;;;;18.48;8.77;;;10.80;80.50;;;;;;5051580;28;20033;-73
2021/03/20 07:46:17;;;;;;;15.20;8.20;;;11.00;80.80;;;;;;5053553;28;20025;-73
2021/03/20 07:48:45;;;;;;;11.60;7.97;;;11.30;80.00;;;;;;5053529;28;20037;-74
2021/03/20 07:51:16;;;;;;;13.18;8.57;;;11.30;80.70;;;;;;5053780;28;20028;-72
2021/03/20 07:53:46;;;;;;;11.45;7.93;;;11.40;79.70;;;;;;5052483;28;20070;-72
2021/03/20 07:56:12;;;;;;;16.10;8.90;;;11.40;79.80;;;;;;5053396;28;20037;-71
2021/03/20 07:58:43;;;;;;;21.02;8.10;;;11.40;79.80;;;;;;5051732;28;20087;-76
2021/03/20 08:01:22;;;;;;;12.80;8.15;;;11.60;79.90;;;;;;5053498;28;20082;-75
2021/03/20 08:03:53;;;;;;;11.98;7.65;;;11.50;79.20;;;;;;5052895;28;20052;-72
2021/03/20 08:06:39;;;;;;;11.05;7.85;;;11.50;79.90;;;;;;5053781;28;20025;-74
2021/03/20 08:09:20;;;;;;;13.00;8.40;;;11.60;79.60;;;;;;5053308;28;20423;-73
2021/03/20 08:11:48;;;;;;;11.85;8.98;;;11.70;79.50;;;;;;5053657;28;20098;-73
2021/03/20 08:14:32;;;;;;;21.15;8.55;;;11.60;79.30;;;;;;5054000;28;20075;-72
2021/03/20 08:16:58;;;;;;;16.80;8.93;;;11.80;79.80;;;;;;5052616;28;20040;-77
2021/03/20 08:19:25;;;;;;;13.68;8.52;;;12.10;78.60;;;;;;5050390;28;20112;-73
2021/03/20 08:22:07;;;;;;;18.13;10.63;;;11.90;78.80;;;;;;5052407;28;20476;-76
2021/03/20 08:25:10;;;;;;;13.63;8.45;;;11.80;78.90;;;;;;5052349;28;20052;-78
2021/03/20 08:27:54;;;;;;;10.85;8.20;;;12.00;79.10;;;;;;5051025;28;20390;-75
2021/03/20 08:30:38;;;;;;;9.68;7.85;;;12.20;78.80;;;;;;5052446;28;20037;-75
2021/03/20 08:33:22;;;;;;;14.80;8.38;;;12.50;77.30;;;;;;5049639;28;20361;-80
2021/03/20 08:36:02;;;;;;;13.38;7.15;;;12.80;76.50;;;;;;5051343;28;20033;-72
2021/03/20 08:38:51;;;;;;;12.18;7.78;;;13.20;75.80;;;;;;5051252;28;20548;-78
2021/03/20 08:41:35;;;;;;;10.68;7.40;;;13.30;74.50;;;;;;5049297;28;20289;-82
2021/03/20 08:44:39;;;;;;;10.70;7.50;;;13.20;73.50;;;;;;5046533;28;20449;-73
2021/03/20 08:47:17;;;;;;;11.50;8.45;;;13.00;74.30;;;;;;5056770;28;20037;-74
2021/03/20 08:50:04;;;;;;;10.55;7.63;;;12.90;74.80;;;;;;5049851;28;20045;-74
2021/03/20 08:53:01;;;;;;;16.52;11.27;;;13.00;74.80;;;;;;5049328;28;20005;-76
2021/03/20 08:55:45;;;;;;;10.88;7.50;;;13.30;74.60;;;;;;5051353;28;20029;-72
2021/03/20 08:58:32;;;;;;;18.58;7.97;;;13.40;74.20;;;;;;5051861;28;20025;-73
2021/03/20 09:01:22;;;;;;;11.30;9.13;;;13.60;72.60;;;;;;5047803;28;20016;-72
2021/03/20 09:03:52;;;;;;;12.32;6.57;;;13.60;73.50;;;;;;5049762;28;20021;-71
2021/03/20 09:06:33;;;;;;;29.15;8.70;;;13.90;71.90;;;;;;5049642;28;20117;-74
2021/03/20 09:09:11;;;;;;;28.42;11.32;;;13.50;72.00;;;;;;5050303;28;20029;-75
2021/03/20 09:11:40;;;;;;;15.35;8.93;;;13.60;73.00;;;;;;5050283;28;20035;-73
2021/03/20 09:14:15;;;;;;;29.02;9.10;;;13.60;72.50;;;;;;5049975;28;20441;-74
2021/03/20 09:16:58;;;;;;;15.57;9.85;;;13.50;71.90;;;;;;5051137;28;20025;-76
2021/03/20 09:19:59;;;;;;;16.83;7.22;;;13.30;72.50;;;;;;5065455;28;20108;-74
2021/03/20 09:22:31;;;;;;;8.73;6.57;;;12.90;73.20;;;;;;5051396;28;20060;-76
2021/03/20 09:25:19;;;;;;;11.85;6.43;;;12.90;73.60;;;;;;5047101;28;20024;-77
2021/03/20 09:28:02;;;;;;;15.82;5.90;;;13.00;72.80;;;;;;5047935;28;20039;-74
2021/03/20 09:30:30;;;;;;;11.05;6.15;;;12.80;73.10;;;;;;5049528;28;20037;-77
2021/03/20 09:32:58;;;;;;;12.05;6.70;;;12.70;73.40;;;;;;5051117;28;20025;-74
2021/03/20 09:35:37;;;;;;;9.25;6.18;;;12.60;73.20;;;;;;5049963;28;20367;-72
2021/03/20 09:38:03;;;;;;;9.20;5.90;;;12.60;73.30;;;;;;5049204;28;20127;-74
2021/03/20 09:40:44;;;;;;;7.57;5.78;;;12.40;73.60;;;;;;5050673;28;20120;-73
2021/03/20 09:43:34;;;;;;;13.88;6.45;;;12.60;73.90;;;;;;5051211;28;20028;-72
2021/03/20 09:46:26;;;;;;;8.30;5.95;;;12.30;74.60;;;;;;5052375;28;20056;-77
2021/03/20 09:48:52;;;;;;;9.45;5.68;;;12.40;74.50;;;;;;5037819;28;20039;-73
2021/03/20 09:51:59;;;;;;;12.00;5.70;;;12.40;73.80;;;;;;5048091;28;20045;-74
2021/03/20 09:56:54;;;;;;;11.05;6.15;;;12.20;74.70;;;;;;5049263;28;20422;-75
2021/03/20 09:59:33;;;;;;;8.57;6.50;;;11.90;74.40;;;;;;5050416;28;20029;-72
2021/03/20 10:02:26;;;;;;;8.38;6.07;;;11.80;74.80;;;;;;5048304;28;20017;-74
2021/03/20 10:04:52;;;;;;;7.78;5.63;;;11.70;75.60;;;;;;5051069;28;20028;-76
2021/03/20 10:07:21;;;;;;;7.72;5.25;;;11.60;76.20;;;;;;5050704;28;20028;-76
2021/03/20 10:10:10;;;;;;;10.43;6.55;;;11.60;75.50;;;;;;5050356;28;20446;-73
2021/03/20 10:12:42;;;;;;;6.65;5.20;;;11.40;76.20;;;;;;5050931;28;20021;-72
2021/03/20 10:15:20;;;;;;;8.02;5.30;;;11.50;76.20;;;;;;5050688;28;20048;-75
2021/03/20 10:18:23;;;;;;;10.38;5.38;;;11.40;76.60;;;;;;5050752;28;20029;-72
2021/03/20 10:20:55;;;;;;;8.13;4.82;;;11.60;76.90;;;;;;5048499;28;20028;-74
2021/03/20 10:23:42;;;;;;;15.45;7.97;;;11.70;75.60;;;;;;5050560;28;20032;-74
2021/03/20 10:26:37;;;;;;;9.77;7.07;;;11.70;76.50;;;;;;5050427;28;20100;-75
2021/03/20 10:29:27;;;;;;;9.07;5.55;;;11.90;77.70;;;;;;5055949;28;20404;-76
2021/03/20 10:31:55;;;;;;;6.32;4.97;;;12.00;77.70;;;;;;5048376;28;20650;-74
2021/03/20 10:34:24;;;;;;;5.13;4.32;;;11.70;75.20;;;;;;5049185;28;21367;-74
2021/03/20 10:37:09;;;;;;;8.05;6.22;;;11.50;75.80;;;;;;5048779;28;20124;-74
2021/03/20 10:39:38;;;;;;;10.90;4.97;;;11.40;76.70;;;;;;5050607;28;20032;-72
2021/03/20 10:42:26;;;;;;;6.70;5.22;;;11.30;77.00;;;;;;5050363;28;20239;-77
2021/03/20 10:44:57;;;;;;;10.05;4.55;;;11.40;77.00;;;;;;5051038;28;20394;-73
2021/03/20 10:47:28;;;;;;;5.63;4.38;;;11.50;75.90;;;;;;5049358;28;20013;-74
2021/03/20 10:50:02;;;;;;;6.50;4.85;;;11.40;76.10;;;;;;5049959;28;20067;-72
2021/03/20 10:52:38;;;;;;;6.50;4.53;;;11.30;75.90;;;;;;5052426;28;20029;-77
2021/03/20 10:55:35;;;;;;;6.28;4.70;;;11.20;77.30;;;;;;5054776;28;20041;-73
2021/03/20 10:58:00;;;;;;;10.27;6.90;;;11.20;76.80;;;;;;5056592;28;20009;-77
2021/03/20 11:00:41;;;;;;;8.80;4.93;;;11.20;76.30;;;;;;5063004;28;20485;-77
2021/03/20 11:03:27;;;;;;;5.25;4.35;;;11.10;76.30;;;;;;5056451;28;20024;-77
2021/03/20 11:05:53;;;;;;;7.57;5.78;;;11.00;76.50;;;;;;5054156;28;20091;-77
2021/03/20 11:08:19;;;;;;;5.93;4.65;;;11.00;76.80;;;;;;5052588;28;20028;-74
2021/03/20 11:10:48;;;;;;;5.25;4.07;;;11.10;77.00;;;;;;5056993;28;20033;-76
2021/03/20 11:13:17;;;;;;;8.23;6.20;;;11.00;76.60;;;;;;5057613;28;20074;-77
2021/03/20 11:15:47;;;;;;;6.38;5.45;;;11.00;76.80;;;;;;5055485;28;20104;-76
2021/03/20 11:18:23;;;;;;;5.10;3.60;;;11.10;76.90;;;;;;5050996;28;20078;-75
2021/03/20 11:20:50;;;;;;;7.65;4.45;;;11.10;75.20;;;;;;5047127;28;20021;-74
2021/03/20 11:23:31;;;;;;;9.18;3.45;;;11.10;74.10;;;;;;5050993;28;20055;-75
2021/03/20 11:26:08;;;;;;;4.28;3.20;;;11.00;74.90;;;;;;5051803;28;20013;-75
2021/03/20 11:28:35;;;;;;;6.65;3.70;;;10.80;73.20;;;;;;5050791;28;20028;-75
2021/03/20 11:31:06;;;;;;;5.03;3.60;;;10.70;72.70;;;;;;5044232;28;20040;-76
2021/03/20 11:33:39;;;;;;;3.92;3.13;;;10.60;73.30;;;;;;5052179;28;20024;-76
2021/03/20 11:36:14;;;;;;;6.13;3.85;;;10.60;73.80;;;;;;5051285;28;20359;-76
2021/03/20 11:38:40;;;;;;;3.58;2.97;;;10.50;73.00;;;;;;5049969;28;20095;-72
2021/03/20 11:41:08;;;;;;;3.05;2.75;;;10.60;72.50;;;;;;5051060;28;20096;-74
2021/03/20 11:43:56;;;;;;;4.30;3.42;;;10.60;71.20;;;;;;5047106;28;20481;-76
2021/03/20 11:46:36;;;;;;;7.25;3.35;;;10.60;72.20;;;;;;5050073;28;20082;-74
2021/03/20 11:49:06;;;;;;;10.40;4.15;;;10.60;72.80;;;;;;5046593;28;20045;-73
2021/03/20 11:51:39;;;;;;;5.15;3.97;;;10.60;74.00;;;;;;5051027;28;20064;-76
2021/03/20 11:54:18;;;;;;;3.97;3.45;;;10.60;73.00;;;;;;5050857;28;20071;-77
2021/03/20 11:57:02;;;;;;;13.68;4.60;;;10.60;72.40;;;;;;5045782;28;20481;-78
2021/03/20 11:59:41;;;;;;;6.45;4.50;;;10.70;73.10;;;;;;5050068;28;20155;-72
2021/03/20 12:02:31;;;;;;;7.78;3.78;;;10.60;73.50;;;;;;5049591;28;20029;-73
2021/03/20 12:05:09;;;;;;;4.80;3.83;;;10.40;74.60;;;;;;5050999;28;20041;-72
2021/03/20 12:07:35;;;;;;;5.80;3.83;;;10.50;74.90;;;;;;5052056;28;20051;-76
2021/03/20 12:10:18;;;;;;;5.40;3.85;;;10.50;73.90;;;;;;5048908;28;20033;-72
2021/03/20 12:12:49;;;;;;;6.07;4.45;;;10.50;74.40;;;;;;5051771;28;20066;-74
2021/03/20 12:15:23;;;;;;;5.30;4.30;;;10.60;74.30;;;;;;5050568;28;20036;-72
2021/03/20 12:17:50;;;;;;;4.60;3.45;;;10.70;73.80;;;;;;5050786;28;20025;-74
2021/03/20 12:20:33;;;;;;;13.75;4.10;;;10.70;73.90;;;;;;5047858;28;20094;-76
2021/03/20 12:23:20;;;;;;;8.48;4.60;;;10.60;73.20;;;;;;5047295;28;20044;-74
2021/03/20 12:25:50;;;;;;;6.47;4.47;;;10.50;73.50;;;;;;5043012;28;20021;-76
2021/03/20 12:28:39;;;;;;;9.10;4.30;;;10.60;73.60;;;;;;5048044;28;20037;-77
2021/03/20 12:31:12;;;;;;;5.53;4.13;;;10.50;73.80;;;;;;5047140;28;20036;-76
2021/03/20 12:33:54;;;;;;;6.10;4.07;;;10.50;74.10;;;;;;5049210;28;20449;-75
2021/03/20 12:36:28;;;;;;;;;;;10.60;73.40;;;;;;5051161;28;20033;-77
2021/03/20 12:38:55;;;;;;;12.55;6.45;;;10.60;73.70;;;;;;5046359;28;20511;-76
2021/03/20 12:41:24;;;;;;;10.38;7.32;;;10.70;73.30;;;;;;5050595;28;20025;-73
2021/03/20 12:44:13;;;;;;;6.57;4.68;;;10.60;73.10;;;;;;5049895;28;20064;-72
2021/03/20 12:46:43;;;;;;;7.22;4.93;;;10.60;73.10;;;;;;5065039;28;20029;-74
2021/03/20 12:49:09;;;;;;;7.72;5.68;;;10.50;72.40;;;;;;5050362;28;20415;-73
2021/03/20 12:51:35;;;;;;;8.80;5.57;;;10.50;73.20;;;;;;5049573;28;20601;-76
2021/03/20 12:54:01;;;;;;;6.15;5.13;;;10.50;74.00;;;;;;5051390;28;20024;-77
2021/03/20 12:56:27;;;;;;;7.45;4.97;;;10.60;73.80;;;;;;5051652;28;20572;-74
2021/03/20 12:58:52;;;;;;;8.75;6.30;;;10.40;73.20;;;;;;5051283;28;20102;-72
2021/03/20 13:01:18;;;;;;;6.25;5.22;;;10.40;74.00;;;;;;5051100;28;20056;-72
2021/03/20 13:03:44;;;;;;;7.30;5.55;;;10.40;73.90;;;;;;5051494;28;20058;-73
2021/03/20 13:06:10;;;;;;;8.10;6.03;;;10.40;74.30;;;;;;5051482;28;20025;-73
2021/03/20 13:08:38;;;;;;;8.93;6.25;;;10.40;74.80;;;;;;5050122;28;20536;-72
2021/03/20 13:11:06;;;;;;;8.85;5.85;;;10.50;74.70;;;;;;5050845;28;20036;-72
2021/03/20 13:13:32;;;;;;;7.43;5.90;;;10.50;74.50;;;;;;5050398;28;20025;-73
2021/03/20 13:15:58;;;;;;;7.10;5.30;;;10.50;73.30;;;;;;5050943;28;20036;-73
2021/03/20 13:18:24;;;;;;;7.80;6.20;;;10.40;72.70;;;;;;5050466;28;20033;-74
2021/03/20 13:20:50;;;;;;;7.68;5.20;;;10.40;73.30;;;;;;5050193;28;20108;-74
2021/03/20 13:23:18;;;;;;;7.88;5.90;;;10.40;73.20;;;;;;5042758;28;20033;-73
2021/03/20 13:25:44;;;;;;;7.05;5.60;;;10.40;73.80;;;;;;5048218;28;20022;-72
2021/03/20 13:28:11;;;;;;;8.35;5.25;;;10.40;73.80;;;;;;5050216;28;20025;-73
2021/03/20 13:30:43;;;;;;;7.55;5.28;;;10.50;73.20;;;;;;5050218;28;20060;-72
2021/03/20 13:33:12;;;;;;;8.30;5.90;;;10.50;72.10;;;;;;5051109;28;20029;-73
2021/03/20 13:35:40;;;;;;;8.43;5.57;;;10.60;71.60;;;;;;5043124;28;20032;-73